sensor_id;sensor_type;location;lat;lon;timestamp;pressure;altitude;pressure_sealevel;temperature;humidity
6833;BME280;3454;42.654;23.378;2023-11-21T00:00:37;63670.31;;;7.05;99.56
6833;BME280;3454;42.654;23.378;2023-11-21T00:03:03;63673.34;;;7.05;100.00
6833;BME280;3454;42.654;23.378;2023-11-21T00:05:29;63691.34;;;7.22;99.01
6833;BME280;3454;42.654;23.378;2023-11-21T00:07:54;63701.72;;;7.31;96.65
6833;BME280;3454;42.654;23.378;2023-11-21T00:10:20;63682.06;;;7.13;95.34
6833;BME280;3454;42.654;23.378;2023-11-21T00:12:46;63673.91;;;7.06;96.80
6833;BME280;3454;42.654;23.378;2023-11-21T00:15:13;63678.59;;;7.08;96.21
6833;BME280;3454;42.654;23.378;2023-11-21T00:17:39;63659.41;;;6.95;97.17
6833;BME280;3454;42.654;23.378;2023-11-21T00:20:08;63664.09;;;6.97;98.09
6833;BME280;3454;42.654;23.378;2023-11-21T00:22:34;63654.50;;;6.90;98.03
6833;BME280;3454;42.654;23.378;2023-11-21T00:25:01;63651.00;;;6.85;98.23
6833;BME280;3454;42.654;23.378;2023-11-21T00:27:27;63655.59;;;6.91;97.72
6833;BME280;3454;42.654;23.378;2023-11-21T00:29:52;63652.31;;;6.88;97.00
6833;BME280;3454;42.654;23.378;2023-11-21T00:32:18;63649.59;;;6.86;96.95
6833;BME280;3454;42.654;23.378;2023-11-21T00:34:44;63641.41;;;6.78;97.48
6833;BME280;3454;42.654;23.378;2023-11-21T00:37:09;63629.09;;;6.69;100.00
6833;BME280;3454;42.654;23.378;2023-11-21T00:39:35;63652.66;;;6.86;98.89
6833;BME280;3454;42.654;23.378;2023-11-21T00:42:00;63652.09;;;6.86;98.85
6833;BME280;3454;42.654;23.378;2023-11-21T00:44:26;63652.09;;;6.86;99.62
6833;BME280;3454;42.654;23.378;2023-11-21T00:46:51;63652.09;;;6.86;95.82
6833;BME280;3454;42.654;23.378;2023-11-21T00:49:17;63640.13;;;6.74;97.81
6833;BME280;3454;42.654;23.378;2023-11-21T00:51:42;63639.25;;;6.76;97.48
6833;BME280;3454;42.654;23.378;2023-11-21T00:54:07;63663.22;;;6.98;96.10
6833;BME280;3454;42.654;23.378;2023-11-21T00:56:33;63653.72;;;6.87;96.50
6833;BME280;3454;42.654;23.378;2023-11-21T00:58:59;63639.25;;;6.76;98.74
6833;BME280;3454;42.654;23.378;2023-11-21T01:01:24;63625.59;;;6.63;100.00
6833;BME280;3454;42.654;23.378;2023-11-21T01:03:50;63646.84;;;6.83;98.31
6833;BME280;3454;42.654;23.378;2023-11-21T01:06:16;63648.28;;;6.82;97.79
6833;BME280;3454;42.654;23.378;2023-11-21T01:08:43;63644.47;;;6.78;97.71
6833;BME280;3454;42.654;23.378;2023-11-21T01:11:09;63625.59;;;6.63;98.55
6833;BME280;3454;42.654;23.378;2023-11-21T01:13:37;63640.44;;;6.72;100.00
6833;BME280;3454;42.654;23.378;2023-11-21T01:16:03;63640.63;;;6.75;99.95
6833;BME280;3454;42.654;23.378;2023-11-21T01:18:29;63642.81;;;6.77;99.73
6833;BME280;3454;42.654;23.378;2023-11-21T01:20:54;63655.06;;;6.91;98.37
6833;BME280;3454;42.654;23.378;2023-11-21T01:23:20;63647.19;;;6.81;100.00
6833;BME280;3454;42.654;23.378;2023-11-21T01:25:45;63660.28;;;6.93;97.95
6833;BME280;3454;42.654;23.378;2023-11-21T01:28:11;63663.44;;;7.01;96.90
6833;BME280;3454;42.654;23.378;2023-11-21T01:30:37;63667.91;;;7.00;97.54
6833;BME280;3454;42.654;23.378;2023-11-21T01:33:02;63636.84;;;6.71;100.00
6833;BME280;3454;42.654;23.378;2023-11-21T01:35:29;63613.94;;;6.50;100.00
6833;BME280;3454;42.654;23.378;2023-11-21T01:37:54;63621.56;;;6.57;100.00
6833;BME280;3454;42.654;23.378;2023-11-21T01:40:20;63628.09;;;6.63;100.00
6833;BME280;3454;42.654;23.378;2023-11-21T01:42:46;63621.03;;;6.57;100.00
6833;BME280;3454;42.654;23.378;2023-11-21T01:45:13;63618.50;;;6.57;100.00
6833;BME280;3454;42.654;23.378;2023-11-21T01:47:41;63585.28;;;6.26;100.00
6833;BME280;3454;42.654;23.378;2023-11-21T01:50:13;63602.28;;;6.37;100.00
6833;BME280;3454;42.654;23.378;2023-11-21T01:52:44;63623.19;;;6.59;100.00
6833;BME280;3454;42.654;23.378;2023-11-21T01:55:10;63624.53;;;6.62;100.00
6833;BME280;3454;42.654;23.378;2023-11-21T01:57:37;63597.28;;;6.37;100.00
6833;BME280;3454;42.654;23.378;2023-11-21T02:00:03;63595.63;;;6.36;100.00
6833;BME280;3454;42.654;23.378;2023-11-21T02:02:48;63595.41;;;6.33;100.00
6833;BME280;3454;42.654;23.378;2023-11-21T02:05:18;63601.31;;;6.43;100.00
6833;BME280;3454;42.654;23.378;2023-11-21T02:07:44;63601.41;;;6.39;100.00
6833;BME280;3454;42.654;23.378;2023-11-21T02:10:13;63591.81;;;6.32;100.00
6833;BME280;3454;42.654;23.378;2023-11-21T02:12:40;63590.72;;;6.31;100.00
6833;BME280;3454;42.654;23.378;2023-11-21T02:15:08;63590.50;;;6.29;100.00
6833;BME280;3454;42.654;23.378;2023-11-21T02:17:43;63587.00;;;6.23;100.00
6833;BME280;3454;42.654;23.378;2023-11-21T02:20:12;63580.38;;;6.22;100.00
6833;BME280;3454;42.654;23.378;2023-11-21T02:22:41;63583.41;;;6.22;100.00
6833;BME280;3454;42.654;23.378;2023-11-21T02:25:08;63554.00;;;5.95;100.00
6833;BME280;3454;42.654;23.378;2023-11-21T02:27:35;63547.47;;;5.89;100.00
6833;BME280;3454;42.654;23.378;2023-11-21T02:30:01;63557.50;;;6.01;100.00
6833;BME280;3454;42.654;23.378;2023-11-21T02:32:29;63542.56;;;5.84;100.00
6833;BME280;3454;42.654;23.378;2023-11-21T02:34:56;63563.28;;;6.04;100.00
6833;BME280;3454;42.654;23.378;2023-11-21T02:37:26;63574.69;;;6.14;100.00
6833;BME280;3454;42.654;23.378;2023-11-21T02:39:51;63571.13;;;6.13;100.00
6833;BME280;3454;42.654;23.378;2023-11-21T02:42:18;63573.06;;;6.13;100.00
6833;BME280;3454;42.654;23.378;2023-11-21T02:44:44;63577.09;;;6.19;100.00
6833;BME280;3454;42.654;23.378;2023-11-21T02:47:09;63545.28;;;5.87;100.00
6833;BME280;3454;42.654;23.378;2023-11-21T02:49:36;63547.38;;;5.93;100.00
6833;BME280;3454;42.654;23.378;2023-11-21T02:52:02;63546.59;;;5.90;100.00
6833;BME280;3454;42.654;23.378;2023-11-21T02:54:27;63542.00;;;5.84;100.00
6833;BME280;3454;42.654;23.378;2023-11-21T02:56:53;63537.31;;;5.82;100.00
6833;BME280;3454;42.654;23.378;2023-11-21T02:59:18;63555.63;;;5.97;100.00
6833;BME280;3454;42.654;23.378;2023-11-21T03:01:45;63572.00;;;6.12;100.00
6833;BME280;3454;42.654;23.378;2023-11-21T03:04:11;63574.69;;;6.14;100.00
6833;BME280;3454;42.654;23.378;2023-11-21T03:06:44;63568.16;;;6.08;100.00
6833;BME280;3454;42.654;23.378;2023-11-21T03:09:10;63572.53;;;6.12;100.00
6833;BME280;3454;42.654;23.378;2023-11-21T03:11:37;63564.59;;;6.07;100.00
6833;BME280;3454;42.654;23.378;2023-11-21T03:14:02;63555.63;;;5.97;100.00
6833;BME280;3454;42.654;23.378;2023-11-21T03:16:28;63554.25;;;5.98;100.00
6833;BME280;3454;42.654;23.378;2023-11-21T03:18:54;63561.09;;;6.02;100.00
6833;BME280;3454;42.654;23.378;2023-11-21T03:21:19;63548.47;;;5.94;100.00
6833;BME280;3454;42.654;23.378;2023-11-21T03:23:45;63567.09;;;6.07;100.00
6833;BME280;3454;42.654;23.378;2023-11-21T03:26:13;63549.09;;;5.90;100.00
6833;BME280;3454;42.654;23.378;2023-11-21T03:28:39;63531.09;;;5.74;100.00
6833;BME280;3454;42.654;23.378;2023-11-21T03:31:05;63535.69;;;5.80;100.00
6833;BME280;3454;42.654;23.378;2023-11-21T03:33:32;63537.56;;;5.84;100.00
6833;BME280;3454;42.654;23.378;2023-11-21T03:35:57;63545.28;;;5.87;100.00
6833;BME280;3454;42.654;23.378;2023-11-21T03:38:23;63554.56;;;5.96;100.00
6833;BME280;3454;42.654;23.378;2023-11-21T03:40:49;63557.81;;;5.99;100.00
6833;BME280;3454;42.654;23.378;2023-11-21T03:43:15;63553.47;;;5.94;100.00
6833;BME280;3454;42.654;23.378;2023-11-21T03:45:41;63555.31;;;5.99;100.00
6833;BME280;3454;42.654;23.378;2023-11-21T03:48:07;63562.72;;;6.03;100.00
6833;BME280;3454;42.654;23.378;2023-11-21T03:50:32;63566.53;;;6.07;100.00
6833;BME280;3454;42.654;23.378;2023-11-21T03:52:58;63580.91;;;6.22;100.00
6833;BME280;3454;42.654;23.378;2023-11-21T03:55:24;63575.78;;;6.15;100.00
6833;BME280;3454;42.654;23.378;2023-11-21T03:57:50;63541.69;;;5.86;100.00
6833;BME280;3454;42.654;23.378;2023-11-21T04:00:17;63557.25;;;5.98;100.00
6833;BME280;3454;42.654;23.378;2023-11-21T04:02:42;63556.94;;;6.00;100.00
6833;BME280;3454;42.654;23.378;2023-11-21T04:05:08;63549.66;;;5.91;100.00
6833;BME280;3454;42.654;23.378;2023-11-21T04:07:35;63552.91;;;5.94;100.00
6833;BME280;3454;42.654;23.378;2023-11-21T04:10:02;63567.94;;;6.06;100.00
6833;BME280;3454;42.654;23.378;2023-11-21T04:12:28;63552.91;;;5.94;100.00
6833;BME280;3454;42.654;23.378;2023-11-21T04:14:53;63528.41;;;5.71;100.00
6833;BME280;3454;42.654;23.378;2023-11-21T04:17:19;63523.50;;;5.67;100.00
6833;BME280;3454;42.654;23.378;2023-11-21T04:19:45;63514.78;;;5.59;100.00
6833;BME280;3454;42.654;23.378;2023-11-21T04:22:11;63544.19;;;5.86;100.00
6833;BME280;3454;42.654;23.378;2023-11-21T04:24:37;63552.91;;;5.94;100.00
6833;BME280;3454;42.654;23.378;2023-11-21T04:27:02;63525.13;;;5.68;100.00
6833;BME280;3454;42.654;23.378;2023-11-21T04:29:28;63529.69;;;5.75;100.00
6833;BME280;3454;42.654;23.378;2023-11-21T04:31:53;63544.19;;;5.86;100.00
6833;BME280;3454;42.654;23.378;2023-11-21T04:34:19;63513.69;;;5.58;100.00
6833;BME280;3454;42.654;23.378;2023-11-21T04:36:44;63501.16;;;5.46;100.00
6833;BME280;3454;42.654;23.378;2023-11-21T04:39:10;63500.28;;;5.48;100.00
6833;BME280;3454;42.654;23.378;2023-11-21T04:41:36;63493.00;;;5.39;100.00
6833;BME280;3454;42.654;23.378;2023-11-21T04:44:07;63477.44;;;5.27;100.00
6833;BME280;3454;42.654;23.378;2023-11-21T04:46:32;63462.72;;;5.13;100.00
6833;BME280;3454;42.654;23.378;2023-11-21T04:48:58;63472.31;;;5.20;100.00
6833;BME280;3454;42.654;23.378;2023-11-21T04:51:24;63479.06;;;5.28;100.00
6833;BME280;3454;42.654;23.378;2023-11-21T04:53:49;63501.38;;;5.49;100.00
6833;BME280;3454;42.654;23.378;2023-11-21T04:56:15;63492.13;;;5.40;100.00
6833;BME280;3454;42.654;23.378;2023-11-21T04:58:41;63472.31;;;5.20;100.00
6833;BME280;3454;42.654;23.378;2023-11-21T05:01:07;63466.56;;;5.17;100.00
6833;BME280;3454;42.654;23.378;2023-11-21T05:03:40;63454.91;;;5.03;100.00
6833;BME280;3454;42.654;23.378;2023-11-21T05:06:06;63470.69;;;5.18;100.00
6833;BME280;3454;42.654;23.378;2023-11-21T05:08:31;63494.41;;;5.38;100.00
6833;BME280;3454;42.654;23.378;2023-11-21T05:10:57;63487.34;;;5.31;100.00
6833;BME280;3454;42.654;23.378;2023-11-21T05:13:22;63473.09;;;5.23;100.00
6833;BME280;3454;42.654;23.378;2023-11-21T05:15:53;63488.66;;;5.35;100.00
6833;BME280;3454;42.654;23.378;2023-11-21T05:18:19;63496.59;;;5.40;100.00
6833;BME280;3454;42.654;23.378;2023-11-21T05:20:44;63481.25;;;5.30;100.00
6833;BME280;3454;42.654;23.378;2023-11-21T05:23:10;63494.84;;;5.43;100.00
6833;BME280;3454;42.654;23.378;2023-11-21T05:25:35;63500.63;;;5.46;100.00
6833;BME280;3454;42.654;23.378;2023-11-21T05:28:01;63508.47;;;5.55;100.00
6833;BME280;3454;42.654;23.378;2023-11-21T05:30:28;63513.69;;;5.58;100.00
6833;BME280;3454;42.654;23.378;2023-11-21T05:32:53;63527.28;;;5.70;100.00
6833;BME280;3454;42.654;23.378;2023-11-21T05:35:19;63534.69;;;5.75;100.00
6833;BME280;3454;42.654;23.378;2023-11-21T05:37:46;63527.06;;;5.68;100.00
6833;BME280;3454;42.654;23.378;2023-11-21T05:40:12;63528.41;;;5.71;100.00
6833;BME280;3454;42.654;23.378;2023-11-21T05:42:39;63537.09;;;5.79;100.00
6833;BME280;3454;42.654;23.378;2023-11-21T05:45:06;63539.81;;;5.82;100.00
6833;BME280;3454;42.654;23.378;2023-11-21T05:47:42;63523.50;;;5.67;100.00
6833;BME280;3454;42.654;23.378;2023-11-21T05:50:09;63530.03;;;5.73;100.00
6833;BME280;3454;42.654;23.378;2023-11-21T05:52:38;63572.84;;;6.10;100.00
6833;BME280;3454;42.654;23.378;2023-11-21T05:55:05;63557.25;;;5.98;100.00
6833;BME280;3454;42.654;23.378;2023-11-21T05:57:35;63557.81;;;5.99;100.00
6833;BME280;3454;42.654;23.378;2023-11-21T06:00:05;63536.56;;;5.79;100.00
6833;BME280;3454;42.654;23.378;2023-11-21T06:02:46;63572.00;;;6.12;100.00
6833;BME280;3454;42.654;23.378;2023-11-21T06:05:12;63540.38;;;5.82;100.00
6833;BME280;3454;42.654;23.378;2023-11-21T06:07:38;63537.97;;;5.78;100.00
6833;BME280;3454;42.654;23.378;2023-11-21T06:10:07;63562.41;;;6.05;100.00
6833;BME280;3454;42.654;23.378;2023-11-21T06:12:35;63577.34;;;6.21;100.00
6833;BME280;3454;42.654;23.378;2023-11-21T06:15:03;63582.34;;;6.21;100.00
6833;BME280;3454;42.654;23.378;2023-11-21T06:17:39;63547.91;;;5.94;100.00
6833;BME280;3454;42.654;23.378;2023-11-21T06:20:11;63561.63;;;6.02;100.00
6833;BME280;3454;42.654;23.378;2023-11-21T06:22:41;63587.44;;;6.28;100.00
6833;BME280;3454;42.654;23.378;2023-11-21T06:25:07;63581.22;;;6.20;100.00
6833;BME280;3454;42.654;23.378;2023-11-21T06:27:37;63575.25;;;6.15;100.00
6833;BME280;3454;42.654;23.378;2023-11-21T06:30:04;63520.75;;;5.64;100.00
6833;BME280;3454;42.654;23.378;2023-11-21T06:32:29;63532.19;;;5.75;100.00
6833;BME280;3454;42.654;23.378;2023-11-21T06:34:56;63541.16;;;5.85;100.00
6833;BME280;3454;42.654;23.378;2023-11-21T06:37:26;63558.38;;;5.99;100.00
6833;BME280;3454;42.654;23.378;2023-11-21T06:39:52;63584.19;;;6.25;100.00
6833;BME280;3454;42.654;23.378;2023-11-21T06:42:18;63639.00;;;6.73;100.00
6833;BME280;3454;42.654;23.378;2023-11-21T06:44:47;63625.06;;;6.63;100.00
6833;BME280;3454;42.654;23.378;2023-11-21T06:47:14;63618.31;;;6.54;100.00
6833;BME280;3454;42.654;23.378;2023-11-21T06:49:42;63628.66;;;6.64;100.00
6833;BME280;3454;42.654;23.378;2023-11-21T06:52:07;63647.19;;;6.81;100.00
6833;BME280;3454;42.654;23.378;2023-11-21T06:54:33;63627.03;;;6.62;100.00
6833;BME280;3454;42.654;23.378;2023-11-21T06:57:00;63624.53;;;6.62;100.00
6833;BME280;3454;42.654;23.378;2023-11-21T06:59:28;63635.19;;;6.70;100.00
6833;BME280;3454;42.654;23.378;2023-11-21T07:01:54;63630.28;;;6.65;100.00
6833;BME280;3454;42.654;23.378;2023-11-21T07:04:19;63640.44;;;6.72;100.00
6833;BME280;3454;42.654;23.378;2023-11-21T07:06:45;63640.13;;;6.74;100.00
6833;BME280;3454;42.654;23.378;2023-11-21T07:09:11;63623.19;;;6.59;100.00
6833;BME280;3454;42.654;23.378;2023-11-21T07:11:37;63632.16;;;6.69;100.00
6833;BME280;3454;42.654;23.378;2023-11-21T07:14:03;63654.28;;;6.88;100.00
6833;BME280;3454;42.654;23.378;2023-11-21T07:16:41;63651.00;;;6.85;100.00
6833;BME280;3454;42.654;23.378;2023-11-21T07:19:07;63652.66;;;6.86;100.00
6833;BME280;3454;42.654;23.378;2023-11-21T07:21:35;63653.94;;;6.90;100.00
6833;BME280;3454;42.654;23.378;2023-11-21T07:24:01;63687.78;;;7.21;100.00
6833;BME280;3454;42.654;23.378;2023-11-21T07:26:27;63688.09;;;7.19;100.00
6833;BME280;3454;42.654;23.378;2023-11-21T07:28:53;63700.84;;;7.33;100.00
6833;BME280;3454;42.654;23.378;2023-11-21T07:31:19;63692.66;;;7.25;100.00
6833;BME280;3454;42.654;23.378;2023-11-21T07:33:46;63696.50;;;7.29;100.00
6833;BME280;3454;42.654;23.378;2023-11-21T07:36:15;63715.03;;;7.46;100.00
6833;BME280;3454;42.654;23.378;2023-11-21T07:38:43;63720.81;;;7.49;100.00
6833;BME280;3454;42.654;23.378;2023-11-21T07:41:16;63714.81;;;7.43;100.00
6833;BME280;3454;42.654;23.378;2023-11-21T07:43:44;63708.25;;;7.37;100.00
6833;BME280;3454;42.654;23.378;2023-11-21T07:46:11;63693.53;;;7.24;100.00
6833;BME280;3454;42.654;23.378;2023-11-21T07:48:39;63725.63;;;7.58;100.00
6833;BME280;3454;42.654;23.378;2023-11-21T07:51:05;63752.47;;;7.78;100.00
6833;BME280;3454;42.654;23.378;2023-11-21T07:53:32;63774.84;;;7.99;100.00
6833;BME280;3454;42.654;23.378;2023-11-21T07:56:05;63691.34;;;7.22;100.00
6833;BME280;3454;42.654;23.378;2023-11-21T07:58:32;63754.13;;;7.80;100.00
6833;BME280;3454;42.654;23.378;2023-11-21T08:01:01;63775.06;;;8.01;100.00
6833;BME280;3454;42.654;23.378;2023-11-21T08:03:27;63773.22;;;7.97;100.00
6833;BME280;3454;42.654;23.378;2023-11-21T08:05:55;63793.94;;;8.16;100.00
6833;BME280;3454;42.654;23.378;2023-11-21T08:08:24;63778.31;;;8.04;100.00
6833;BME280;3454;42.654;23.378;2023-11-21T08:10:50;63759.88;;;7.83;100.00
6833;BME280;3454;42.654;23.378;2023-11-21T08:13:26;63785.22;;;8.08;100.00
6833;BME280;3454;42.654;23.378;2023-11-21T08:15:55;63772.88;;;7.99;100.00
6833;BME280;3454;42.654;23.378;2023-11-21T08:18:21;63790.13;;;8.13;100.00
6833;BME280;3454;42.654;23.378;2023-11-21T08:20:48;63750.28;;;7.76;100.00
6833;BME280;3454;42.654;23.378;2023-11-21T08:23:15;63809.25;;;8.30;100.00
6833;BME280;3454;42.654;23.378;2023-11-21T08:25:45;63808.72;;;8.30;100.00
6833;BME280;3454;42.654;23.378;2023-11-21T08:28:12;63868.69;;;8.90;98.29
6833;BME280;3454;42.654;23.378;2023-11-21T08:30:37;63858.09;;;8.78;96.99
6833;BME280;3454;42.654;23.378;2023-11-21T08:33:03;63852.28;;;8.75;97.68
6833;BME280;3454;42.654;23.378;2023-11-21T08:35:29;63895.00;;;9.09;94.56
6833;BME280;3454;42.654;23.378;2023-11-21T08:37:56;63883.22;;;9.01;95.79
6833;BME280;3454;42.654;23.378;2023-11-21T08:40:22;63817.66;;;8.40;98.46
6833;BME280;3454;42.654;23.378;2023-11-21T08:42:48;63831.66;;;8.51;99.64
6833;BME280;3454;42.654;23.378;2023-11-21T08:45:16;63882.13;;;9.00;97.57
6833;BME280;3454;42.654;23.378;2023-11-21T08:47:43;63902.13;;;9.16;97.07
6833;BME280;3454;42.654;23.378;2023-11-21T08:50:10;63846.94;;;8.65;98.09
6833;BME280;3454;42.654;23.378;2023-11-21T08:52:39;63888.69;;;9.06;96.12
6833;BME280;3454;42.654;23.378;2023-11-21T08:55:06;63914.69;;;9.27;95.19
6833;BME280;3454;42.654;23.378;2023-11-21T08:57:36;63863.88;;;8.81;96.75
6833;BME280;3454;42.654;23.378;2023-11-21T09:00:03;63899.38;;;9.13;95.54
6833;BME280;3454;42.654;23.378;2023-11-21T09:02:32;63914.59;;;9.32;94.38
6833;BME280;3454;42.654;23.378;2023-11-21T09:04:59;63964.97;;;9.74;91.38
6833;BME280;3454;42.654;23.378;2023-11-21T09:07:24;64005.72;;;10.13;90.24
6833;BME280;3454;42.654;23.378;2023-11-21T09:09:50;64025.19;;;10.29;88.95
6833;BME280;3454;42.654;23.378;2023-11-21T09:12:16;64026.81;;;10.31;87.90
6833;BME280;3454;42.654;23.378;2023-11-21T09:14:42;64028.16;;;10.34;86.82
6833;BME280;3454;42.654;23.378;2023-11-21T09:17:10;64043.78;;;10.46;87.03
6833;BME280;3454;42.654;23.378;2023-11-21T09:19:40;64028.69;;;10.35;86.50
6833;BME280;3454;42.654;23.378;2023-11-21T09:22:06;64005.16;;;10.13;88.69
6833;BME280;3454;42.654;23.378;2023-11-21T09:24:35;63968.50;;;9.79;89.50
6833;BME280;3454;42.654;23.378;2023-11-21T09:27:01;63932.94;;;9.47;92.53
6833;BME280;3454;42.654;23.378;2023-11-21T09:29:27;63966.50;;;9.80;90.02
6833;BME280;3454;42.654;23.378;2023-11-21T09:31:52;63967.94;;;9.79;88.56
6833;BME280;3454;42.654;23.378;2023-11-21T09:34:22;63958.66;;;9.70;90.57
6833;BME280;3454;42.654;23.378;2023-11-21T09:36:48;63983.03;;;9.90;90.50
6833;BME280;3454;42.654;23.378;2023-11-21T09:39:14;64000.44;;;10.11;87.86
6833;BME280;3454;42.654;23.378;2023-11-21T09:41:46;64027.59;;;10.34;85.86
6833;BME280;3454;42.654;23.378;2023-11-21T09:44:18;64053.31;;;10.57;86.05
6833;BME280;3454;42.654;23.378;2023-11-21T09:46:44;64164.47;;;11.59;100.00
6833;BME280;3454;42.654;23.378;2023-11-21T09:49:15;64174.91;;;11.69;85.08
6833;BME280;3454;42.654;23.378;2023-11-21T09:51:45;64155.16;;;11.51;82.11
6833;BME280;3454;42.654;23.378;2023-11-21T09:54:13;64140.34;;;11.37;83.59
6833;BME280;3454;42.654;23.378;2023-11-21T09:56:41;64171.38;;;11.63;81.24
6833;BME280;3454;42.654;23.378;2023-11-21T09:59:10;64204.28;;;11.94;80.64
6833;BME280;3454;42.654;23.378;2023-11-21T10:01:38;64218.41;;;12.11;79.13
6833;BME280;3454;42.654;23.378;2023-11-21T10:04:06;64224.53;;;12.12;77.77
6833;BME280;3454;42.654;23.378;2023-11-21T10:06:40;64229.69;;;12.19;78.69
6833;BME280;3454;42.654;23.378;2023-11-21T10:09:12;64215.44;;;12.06;78.13
6833;BME280;3454;42.654;23.378;2023-11-21T10:11:43;64251.63;;;12.39;77.26
6833;BME280;3454;42.654;23.378;2023-11-21T10:14:12;64256.00;;;12.43;75.38
6833;BME280;3454;42.654;23.378;2023-11-21T10:16:40;64297.91;;;12.84;74.27
6833;BME280;3454;42.654;23.378;2023-11-21T10:19:10;64358.59;;;13.37;71.15
6833;BME280;3454;42.654;23.378;2023-11-21T10:21:36;64394.84;;;13.71;68.26
6833;BME280;3454;42.654;23.378;2023-11-21T10:24:03;64393.19;;;13.69;68.59
6833;BME280;3454;42.654;23.378;2023-11-21T10:26:29;64499.41;;;14.69;100.00
6833;BME280;3454;42.654;23.378;2023-11-21T10:29:02;64587.94;;;15.50;100.00
6833;BME280;3454;42.654;23.378;2023-11-21T10:31:32;64611.41;;;15.69;80.46
6833;BME280;3454;42.654;23.378;2023-11-21T10:34:18;64575.84;;;15.39;69.98
6833;BME280;3454;42.654;23.378;2023-11-21T10:36:44;64537.13;;;15.01;75.05
6833;BME280;3454;42.654;23.378;2023-11-21T10:39:16;64485.47;;;14.54;74.70
6833;BME280;3454;42.654;23.378;2023-11-21T10:41:46;64465.91;;;14.38;76.06
6833;BME280;3454;42.654;23.378;2023-11-21T10:44:16;64435.13;;;14.10;76.88
6833;BME280;3454;42.654;23.378;2023-11-21T10:46:54;64423.94;;;13.97;73.81
6833;BME280;3454;42.654;23.378;2023-11-21T10:49:26;64389.91;;;13.66;74.55
6833;BME280;3454;42.654;23.378;2023-11-21T10:51:53;64380.22;;;13.60;73.48
6833;BME280;3454;42.654;23.378;2023-11-21T10:54:24;64367.72;;;13.43;75.33
6833;BME280;3454;42.654;23.378;2023-11-21T10:56:56;64456.91;;;14.27;100.00
6833;BME280;3454;42.654;23.378;2023-11-21T10:59:23;64455.03;;;14.23;79.38
6833;BME280;3454;42.654;23.378;2023-11-21T11:01:51;64406.78;;;13.86;76.84
6833;BME280;3454;42.654;23.378;2023-11-21T11:04:19;64391.53;;;13.68;74.03
6833;BME280;3454;42.654;23.378;2023-11-21T11:07:08;64335.56;;;13.16;75.54
6833;BME280;3454;42.654;23.378;2023-11-21T11:09:35;64247.47;;;12.38;76.30
6833;BME280;3454;42.654;23.378;2023-11-21T11:12:04;64237.91;;;12.27;75.61
6833;BME280;3454;42.654;23.378;2023-11-21T11:14:30;64156.78;;;11.52;76.83
6833;BME280;3454;42.654;23.378;2023-11-21T11:16:58;64134.66;;;11.30;78.77
6833;BME280;3454;42.654;23.378;2023-11-21T11:19:24;64128.31;;;11.26;79.68
6833;BME280;3454;42.654;23.378;2023-11-21T11:21:58;64098.72;;;10.99;78.40
6833;BME280;3454;42.654;23.378;2023-11-21T11:24:49;64097.66;;;10.98;79.32
6833;BME280;3454;42.654;23.378;2023-11-21T11:27:34;64124.16;;;11.25;82.07
6833;BME280;3454;42.654;23.378;2023-11-21T11:32:54;64147.13;;;11.46;83.21
6833;BME280;3454;42.654;23.378;2023-11-21T11:35:32;64135.44;;;11.33;86.37
6833;BME280;3454;42.654;23.378;2023-11-21T11:38:01;64131.91;;;11.27;85.06
6833;BME280;3454;42.654;23.378;2023-11-21T11:40:47;64079.78;;;10.84;84.23
6833;BME280;3454;42.654;23.378;2023-11-21T11:43:13;64064.25;;;10.67;88.20
6833;BME280;3454;42.654;23.378;2023-11-21T11:45:39;64083.41;;;10.85;90.56
6833;BME280;3454;42.654;23.378;2023-11-21T11:48:07;64087.25;;;10.88;91.54
6833;BME280;3454;42.654;23.378;2023-11-21T11:50:32;64060.66;;;10.66;87.96
6833;BME280;3454;42.654;23.378;2023-11-21T11:53:16;64005.91;;;10.16;88.99
6833;BME280;3454;42.654;23.378;2023-11-21T11:55:43;63997.25;;;10.03;90.22
6833;BME280;3454;42.654;23.378;2023-11-21T11:58:09;64002.41;;;10.10;91.73
6833;BME280;3454;42.654;23.378;2023-11-21T12:00:35;64004.94;;;10.10;91.81
6833;BME280;3454;42.654;23.378;2023-11-21T12:03:05;64013.69;;;10.19;93.63
6833;BME280;3454;42.654;23.378;2023-11-21T12:05:35;64029.00;;;10.33;95.13
6833;BME280;3454;42.654;23.378;2023-11-21T12:08:05;64038.88;;;10.42;97.11
6833;BME280;3454;42.654;23.378;2023-11-21T12:10:33;64040.72;;;10.46;97.14
6833;BME280;3454;42.654;23.378;2023-11-21T12:13:02;64050.88;;;10.53;97.03
6833;BME280;3454;42.654;23.378;2023-11-21T12:15:28;64049.81;;;10.52;94.97
6833;BME280;3454;42.654;23.378;2023-11-21T12:17:56;64052.41;;;10.59;99.03
6833;BME280;3454;42.654;23.378;2023-11-21T12:20:24;64054.94;;;10.59;100.00
6833;BME280;3454;42.654;23.378;2023-11-21T12:22:52;64056.03;;;10.60;100.00
6833;BME280;3454;42.654;23.378;2023-11-21T12:25:23;64017.19;;;10.24;99.47
6833;BME280;3454;42.654;23.378;2023-11-21T12:27:50;64042.59;;;10.50;100.00
6833;BME280;3454;42.654;23.378;2023-11-21T12:30:21;64044.00;;;10.49;100.00
6833;BME280;3454;42.654;23.378;2023-11-21T12:32:52;64052.00;;;10.54;100.00
6833;BME280;3454;42.654;23.378;2023-11-21T12:35:19;63989.81;;;9.99;100.00
6833;BME280;3454;42.654;23.378;2023-11-21T12:37:45;63931.66;;;9.43;100.00
6833;BME280;3454;42.654;23.378;2023-11-21T12:40:12;63985.78;;;9.93;100.00
6833;BME280;3454;42.654;23.378;2023-11-21T12:42:47;63994.19;;;10.03;100.00
6833;BME280;3454;42.654;23.378;2023-11-21T12:47:48;63976.47;;;9.84;100.00
6833;BME280;3454;42.654;23.378;2023-11-21T12:50:15;63959.94;;;9.74;100.00
6833;BME280;3454;42.654;23.378;2023-11-21T12:52:45;63995.28;;;10.04;100.00
6833;BME280;3454;42.654;23.378;2023-11-21T12:55:18;64009.75;;;10.20;100.00
6833;BME280;3454;42.654;23.378;2023-11-21T12:57:49;64026.47;;;10.33;99.98
6833;BME280;3454;42.654;23.378;2023-11-21T13:00:18;64021.78;;;10.31;100.00
6833;BME280;3454;42.654;23.378;2023-11-21T13:02:54;63981.94;;;9.89;100.00
6833;BME280;3454;42.654;23.378;2023-11-21T13:05:36;63992.56;;;10.01;100.00
6833;BME280;3454;42.654;23.378;2023-11-21T13:08:08;64010.63;;;10.18;100.00
6833;BME280;3454;42.654;23.378;2023-11-21T13:10:36;64026.81;;;10.31;100.00
6833;BME280;3454;42.654;23.378;2023-11-21T13:13:04;64018.84;;;10.26;100.00
6833;BME280;3454;42.654;23.378;2023-11-21T13:15:31;63985.44;;;9.95;100.00
6833;BME280;3454;42.654;23.378;2023-11-21T13:17:58;63969.03;;;9.80;100.00
6833;BME280;3454;42.654;23.378;2023-11-21T13:20:25;64013.91;;;10.21;100.00